sensor_id;sensor_type;location;lat;lon;timestamp;P1;durP1;ratioP1;P2;durP2;ratioP2
4345;SDS011;2186;49.866;7.986;2022-11-15T00:00:53;11.90;;;4.53;;
4345;SDS011;2186;49.866;7.986;2022-11-15T00:03:22;2.90;;;2.70;;
4345;SDS011;2186;49.866;7.986;2022-11-15T00:05:50;7.10;;;3.53;;
4345;SDS011;2186;49.866;7.986;2022-11-15T00:08:17;4.70;;;4.30;;
4345;SDS011;2186;49.866;7.986;2022-11-15T00:10:53;3.70;;;3.40;;
4345;SDS011;2186;49.866;7.986;2022-11-15T00:13:20;4.10;;;3.80;;
4345;SDS011;2186;49.866;7.986;2022-11-15T00:15:47;12.53;;;5.77;;
4345;SDS011;2186;49.866;7.986;2022-11-15T00:18:14;4.30;;;2.73;;
4345;SDS011;2186;49.866;7.986;2022-11-15T00:20:41;4.03;;;3.73;;
4345;SDS011;2186;49.866;7.986;2022-11-15T00:23:09;3.97;;;2.87;;
4345;SDS011;2186;49.866;7.986;2022-11-15T00:25:35;4.10;;;3.77;;
4345;SDS011;2186;49.866;7.986;2022-11-15T00:28:02;6.00;;;2.93;;
4345;SDS011;2186;49.866;7.986;2022-11-15T00:30:43;5.60;;;5.10;;
4345;SDS011;2186;49.866;7.986;2022-11-15T00:33:09;5.00;;;3.40;;
4345;SDS011;2186;49.866;7.986;2022-11-15T00:35:36;5.00;;;4.60;;
4345;SDS011;2186;49.866;7.986;2022-11-15T00:38:02;4.33;;;4.03;;
4345;SDS011;2186;49.866;7.986;2022-11-15T00:40:29;5.97;;;3.43;;
4345;SDS011;2186;49.866;7.986;2022-11-15T00:42:56;3.47;;;3.23;;
4345;SDS011;2186;49.866;7.986;2022-11-15T00:45:22;4.43;;;4.03;;
4345;SDS011;2186;49.866;7.986;2022-11-15T00:47:49;6.80;;;6.20;;
4345;SDS011;2186;49.866;7.986;2022-11-15T00:50:16;9.67;;;4.70;;
4345;SDS011;2186;49.866;7.986;2022-11-15T00:52:43;4.10;;;3.80;;
4345;SDS011;2186;49.866;7.986;2022-11-15T00:55:16;4.40;;;4.20;;
4345;SDS011;2186;49.866;7.986;2022-11-15T00:57:43;13.23;;;6.20;;
4345;SDS011;2186;49.866;7.986;2022-11-15T01:00:10;15.93;;;4.87;;
4345;SDS011;2186;49.866;7.986;2022-11-15T01:02:37;5.83;;;3.60;;
4345;SDS011;2186;49.866;7.986;2022-11-15T01:05:04;4.40;;;3.40;;
4345;SDS011;2186;49.866;7.986;2022-11-15T01:07:30;11.53;;;6.40;;
4345;SDS011;2186;49.866;7.986;2022-11-15T01:09:57;20.37;;;4.00;;
4345;SDS011;2186;49.866;7.986;2022-11-15T01:12:23;3.93;;;3.73;;
4345;SDS011;2186;49.866;7.986;2022-11-15T01:14:50;5.67;;;5.27;;
4345;SDS011;2186;49.866;7.986;2022-11-15T01:17:16;10.17;;;3.83;;
4345;SDS011;2186;49.866;7.986;2022-11-15T01:19:43;8.33;;;5.53;;
4345;SDS011;2186;49.866;7.986;2022-11-15T01:22:09;6.23;;;4.97;;
4345;SDS011;2186;49.866;7.986;2022-11-15T01:24:35;4.30;;;3.53;;
4345;SDS011;2186;49.866;7.986;2022-11-15T01:27:02;5.03;;;4.73;;
4345;SDS011;2186;49.866;7.986;2022-11-15T01:29:28;4.70;;;4.27;;
4345;SDS011;2186;49.866;7.986;2022-11-15T01:31:55;5.17;;;4.67;;
4345;SDS011;2186;49.866;7.986;2022-11-15T01:34:21;6.30;;;4.93;;
4345;SDS011;2186;49.866;7.986;2022-11-15T01:36:47;4.83;;;4.00;;
4345;SDS011;2186;49.866;7.986;2022-11-15T01:39:14;4.50;;;4.10;;
4345;SDS011;2186;49.866;7.986;2022-11-15T01:41:41;4.53;;;4.13;;
4345;SDS011;2186;49.866;7.986;2022-11-15T01:47:16;9.53;;;2.80;;
4345;SDS011;2186;49.866;7.986;2022-11-15T01:49:49;4.60;;;4.17;;
4345;SDS011;2186;49.866;7.986;2022-11-15T01:52:21;3.53;;;3.27;;
4345;SDS011;2186;49.866;7.986;2022-11-15T01:54:50;9.00;;;3.20;;
4345;SDS011;2186;49.866;7.986;2022-11-15T01:57:22;3.63;;;2.77;;
4345;SDS011;2186;49.866;7.986;2022-11-15T01:59:49;3.27;;;2.63;;
4345;SDS011;2186;49.866;7.986;2022-11-15T02:02:15;3.87;;;3.67;;
4345;SDS011;2186;49.866;7.986;2022-11-15T02:04:43;6.40;;;3.57;;
4345;SDS011;2186;49.866;7.986;2022-11-15T02:07:12;14.93;;;4.33;;
4345;SDS011;2186;49.866;7.986;2022-11-15T02:09:42;7.93;;;6.30;;
4345;SDS011;2186;49.866;7.986;2022-11-15T02:12:10;3.73;;;3.33;;
4345;SDS011;2186;49.866;7.986;2022-11-15T02:14:39;5.03;;;4.27;;
4345;SDS011;2186;49.866;7.986;2022-11-15T02:22:30;2.83;;;2.63;;
4345;SDS011;2186;49.866;7.986;2022-11-15T02:32:54;6.50;;;4.10;;
4345;SDS011;2186;49.866;7.986;2022-11-15T02:40:51;5.67;;;5.27;;
4345;SDS011;2186;49.866;7.986;2022-11-15T02:43:44;4.30;;;2.97;;
4345;SDS011;2186;49.866;7.986;2022-11-15T02:46:35;3.83;;;3.53;;
4345;SDS011;2186;49.866;7.986;2022-11-15T02:49:26;1.97;;;1.80;;
4345;SDS011;2186;49.866;7.986;2022-11-15T02:51:55;4.93;;;3.13;;
4345;SDS011;2186;49.866;7.986;2022-11-15T02:54:23;4.73;;;3.10;;
4345;SDS011;2186;49.866;7.986;2022-11-15T02:56:55;3.03;;;2.83;;
4345;SDS011;2186;49.866;7.986;2022-11-15T02:59:33;5.33;;;4.17;;
4345;SDS011;2186;49.866;7.986;2022-11-15T03:02:31;8.57;;;4.83;;
4345;SDS011;2186;49.866;7.986;2022-11-15T03:05:09;9.87;;;3.00;;
4345;SDS011;2186;49.866;7.986;2022-11-15T03:10:42;3.17;;;3.07;;
4345;SDS011;2186;49.866;7.986;2022-11-15T03:16:14;1.53;;;1.43;;
4345;SDS011;2186;49.866;7.986;2022-11-15T03:18:47;2.13;;;2.03;;
4345;SDS011;2186;49.866;7.986;2022-11-15T03:21:18;2.40;;;2.30;;
4345;SDS011;2186;49.866;7.986;2022-11-15T03:23:47;2.47;;;2.37;;
4345;SDS011;2186;49.866;7.986;2022-11-15T03:26:16;2.93;;;2.73;;
4345;SDS011;2186;49.866;7.986;2022-11-15T03:28:50;3.03;;;2.93;;
4345;SDS011;2186;49.866;7.986;2022-11-15T03:31:21;2.50;;;2.30;;
4345;SDS011;2186;49.866;7.986;2022-11-15T03:34:19;3.00;;;2.70;;
4345;SDS011;2186;49.866;7.986;2022-11-15T03:36:46;3.23;;;1.60;;
4345;SDS011;2186;49.866;7.986;2022-11-15T03:39:14;3.13;;;2.83;;
4345;SDS011;2186;49.866;7.986;2022-11-15T03:44:35;2.77;;;2.53;;
4345;SDS011;2186;49.866;7.986;2022-11-15T03:48:10;2.87;;;1.73;;
4345;SDS011;2186;49.866;7.986;2022-11-15T03:50:20;4.07;;;2.70;;
4345;SDS011;2186;49.866;7.986;2022-11-15T03:52:48;2.83;;;2.63;;
4345;SDS011;2186;49.866;7.986;2022-11-15T03:55:17;4.17;;;3.10;;
4345;SDS011;2186;49.866;7.986;2022-11-15T03:57:45;2.03;;;1.93;;
4345;SDS011;2186;49.866;7.986;2022-11-15T04:00:13;3.63;;;3.33;;
4345;SDS011;2186;49.866;7.986;2022-11-15T04:02:40;6.07;;;4.20;;
4345;SDS011;2186;49.866;7.986;2022-11-15T04:05:06;3.13;;;2.40;;
4345;SDS011;2186;49.866;7.986;2022-11-15T04:07:33;3.90;;;3.70;;
4345;SDS011;2186;49.866;7.986;2022-11-15T04:10:00;3.03;;;2.80;;
4345;SDS011;2186;49.866;7.986;2022-11-15T04:12:30;3.53;;;3.23;;
4345;SDS011;2186;49.866;7.986;2022-11-15T04:17:37;4.77;;;4.23;;
4345;SDS011;2186;49.866;7.986;2022-11-15T04:22:56;3.57;;;3.30;;
4345;SDS011;2186;49.866;7.986;2022-11-15T04:25:42;3.57;;;3.37;;
4345;SDS011;2186;49.866;7.986;2022-11-15T04:28:10;3.00;;;2.70;;
4345;SDS011;2186;49.866;7.986;2022-11-15T04:30:37;5.37;;;4.17;;
4345;SDS011;2186;49.866;7.986;2022-11-15T04:33:04;2.47;;;2.10;;
4345;SDS011;2186;49.866;7.986;2022-11-15T04:35:30;7.60;;;3.40;;
4345;SDS011;2186;49.866;7.986;2022-11-15T04:37:57;4.47;;;3.30;;
4345;SDS011;2186;49.866;7.986;2022-11-15T04:40:24;7.20;;;4.40;;
4345;SDS011;2186;49.866;7.986;2022-11-15T04:42:50;5.27;;;3.03;;
4345;SDS011;2186;49.866;7.986;2022-11-15T04:45:16;4.77;;;4.47;;
4345;SDS011;2186;49.866;7.986;2022-11-15T04:47:44;3.07;;;2.97;;
4345;SDS011;2186;49.866;7.986;2022-11-15T04:50:11;6.30;;;4.40;;
4345;SDS011;2186;49.866;7.986;2022-11-15T04:52:40;3.90;;;3.73;;
4345;SDS011;2186;49.866;7.986;2022-11-15T04:55:10;3.40;;;3.10;;
4345;SDS011;2186;49.866;7.986;2022-11-15T04:57:37;3.97;;;3.60;;
4345;SDS011;2186;49.866;7.986;2022-11-15T05:00:05;5.40;;;2.97;;
4345;SDS011;2186;49.866;7.986;2022-11-15T05:02:32;6.93;;;4.73;;
4345;SDS011;2186;49.866;7.986;2022-11-15T05:05:18;1.73;;;1.63;;
4345;SDS011;2186;49.866;7.986;2022-11-15T05:07:44;4.70;;;3.57;;
4345;SDS011;2186;49.866;7.986;2022-11-15T05:10:11;2.77;;;2.57;;
4345;SDS011;2186;49.866;7.986;2022-11-15T05:12:37;3.03;;;2.83;;
4345;SDS011;2186;49.866;7.986;2022-11-15T05:15:04;3.90;;;3.60;;
4345;SDS011;2186;49.866;7.986;2022-11-15T05:17:31;3.27;;;3.17;;
4345;SDS011;2186;49.866;7.986;2022-11-15T05:19:57;5.00;;;4.67;;
4345;SDS011;2186;49.866;7.986;2022-11-15T05:22:24;5.33;;;3.47;;
4345;SDS011;2186;49.866;7.986;2022-11-15T05:24:50;3.07;;;2.87;;
4345;SDS011;2186;49.866;7.986;2022-11-15T05:27:16;8.90;;;3.47;;
4345;SDS011;2186;49.866;7.986;2022-11-15T05:29:43;3.23;;;3.03;;
4345;SDS011;2186;49.866;7.986;2022-11-15T05:32:09;2.67;;;2.47;;
4345;SDS011;2186;49.866;7.986;2022-11-15T05:34:37;4.03;;;3.83;;
4345;SDS011;2186;49.866;7.986;2022-11-15T05:37:04;5.50;;;5.00;;
4345;SDS011;2186;49.866;7.986;2022-11-15T05:39:31;2.60;;;2.50;;
4345;SDS011;2186;49.866;7.986;2022-11-15T05:42:00;2.83;;;2.20;;
4345;SDS011;2186;49.866;7.986;2022-11-15T05:44:32;2.93;;;2.73;;
4345;SDS011;2186;49.866;7.986;2022-11-15T05:47:00;4.03;;;3.53;;
4345;SDS011;2186;49.866;7.986;2022-11-15T05:49:27;4.63;;;4.10;;
4345;SDS011;2186;49.866;7.986;2022-11-15T05:51:57;4.30;;;4.00;;
4345;SDS011;2186;49.866;7.986;2022-11-15T05:54:24;2.87;;;2.67;;
4345;SDS011;2186;49.866;7.986;2022-11-15T05:56:51;4.50;;;4.20;;
4345;SDS011;2186;49.866;7.986;2022-11-15T05:59:18;13.87;;;3.43;;
4345;SDS011;2186;49.866;7.986;2022-11-15T06:01:45;2.23;;;2.00;;
4345;SDS011;2186;49.866;7.986;2022-11-15T06:04:12;6.73;;;3.10;;
4345;SDS011;2186;49.866;7.986;2022-11-15T06:06:38;5.87;;;3.57;;
4345;SDS011;2186;49.866;7.986;2022-11-15T06:09:05;3.13;;;2.93;;
4345;SDS011;2186;49.866;7.986;2022-11-15T06:11:31;8.47;;;4.10;;
4345;SDS011;2186;49.866;7.986;2022-11-15T06:13:57;5.73;;;4.37;;
4345;SDS011;2186;49.866;7.986;2022-11-15T06:16:24;9.33;;;3.60;;
4345;SDS011;2186;49.866;7.986;2022-11-15T06:18:50;3.43;;;3.17;;
4345;SDS011;2186;49.866;7.986;2022-11-15T06:21:16;3.67;;;3.47;;
4345;SDS011;2186;49.866;7.986;2022-11-15T06:23:43;3.00;;;2.80;;
4345;SDS011;2186;49.866;7.986;2022-11-15T06:26:09;4.50;;;3.17;;
4345;SDS011;2186;49.866;7.986;2022-11-15T06:28:35;4.23;;;3.47;;
4345;SDS011;2186;49.866;7.986;2022-11-15T06:31:03;3.40;;;3.20;;
4345;SDS011;2186;49.866;7.986;2022-11-15T06:33:30;14.80;;;4.40;;
4345;SDS011;2186;49.866;7.986;2022-11-15T06:36:04;2.07;;;1.50;;
4345;SDS011;2186;49.866;7.986;2022-11-15T06:38:42;2.87;;;2.53;;
4345;SDS011;2186;49.866;7.986;2022-11-15T06:41:12;4.50;;;4.23;;
4345;SDS011;2186;49.866;7.986;2022-11-15T06:43:40;5.10;;;4.60;;
4345;SDS011;2186;49.866;7.986;2022-11-15T06:46:07;12.63;;;3.23;;
4345;SDS011;2186;49.866;7.986;2022-11-15T06:48:34;6.50;;;4.63;;
4345;SDS011;2186;49.866;7.986;2022-11-15T06:51:02;4.23;;;3.90;;
4345;SDS011;2186;49.866;7.986;2022-11-15T06:53:30;5.20;;;4.70;;
4345;SDS011;2186;49.866;7.986;2022-11-15T06:55:58;5.67;;;5.37;;
4345;SDS011;2186;49.866;7.986;2022-11-15T06:58:28;4.10;;;3.40;;
4345;SDS011;2186;49.866;7.986;2022-11-15T07:00:58;5.17;;;4.40;;
4345;SDS011;2186;49.866;7.986;2022-11-15T07:03:36;4.43;;;3.17;;
4345;SDS011;2186;49.866;7.986;2022-11-15T07:06:04;3.10;;;2.87;;
4345;SDS011;2186;49.866;7.986;2022-11-15T07:08:33;3.90;;;3.57;;
4345;SDS011;2186;49.866;7.986;2022-11-15T07:11:05;7.40;;;4.33;;
4345;SDS011;2186;49.866;7.986;2022-11-15T07:13:34;2.53;;;2.43;;
4345;SDS011;2186;49.866;7.986;2022-11-15T07:16:05;4.50;;;3.33;;
4345;SDS011;2186;49.866;7.986;2022-11-15T07:18:34;4.27;;;3.87;;
4345;SDS011;2186;49.866;7.986;2022-11-15T07:21:02;1.80;;;1.70;;
4345;SDS011;2186;49.866;7.986;2022-11-15T07:23:30;2.47;;;2.27;;
4345;SDS011;2186;49.866;7.986;2022-11-15T07:25:58;2.97;;;2.50;;
4345;SDS011;2186;49.866;7.986;2022-11-15T07:28:25;3.77;;;3.57;;
4345;SDS011;2186;49.866;7.986;2022-11-15T07:30:52;4.53;;;3.00;;
4345;SDS011;2186;49.866;7.986;2022-11-15T07:33:19;8.63;;;5.30;;
4345;SDS011;2186;49.866;7.986;2022-11-15T07:35:45;4.53;;;4.13;;
4345;SDS011;2186;49.866;7.986;2022-11-15T07:38:14;7.60;;;4.90;;
4345;SDS011;2186;49.866;7.986;2022-11-15T07:40:41;12.50;;;5.67;;
4345;SDS011;2186;49.866;7.986;2022-11-15T07:43:08;5.60;;;5.30;;
4345;SDS011;2186;49.866;7.986;2022-11-15T07:45:39;16.60;;;3.90;;
4345;SDS011;2186;49.866;7.986;2022-11-15T07:48:10;3.73;;;3.33;;
4345;SDS011;2186;49.866;7.986;2022-11-15T07:50:40;5.43;;;4.03;;
4345;SDS011;2186;49.866;7.986;2022-11-15T07:53:07;4.67;;;3.57;;
4345;SDS011;2186;49.866;7.986;2022-11-15T07:55:35;2.70;;;2.50;;
4345;SDS011;2186;49.866;7.986;2022-11-15T07:58:02;3.27;;;3.00;;
4345;SDS011;2186;49.866;7.986;2022-11-15T08:00:30;4.63;;;4.20;;
4345;SDS011;2186;49.866;7.986;2022-11-15T08:03:07;4.20;;;2.70;;
4345;SDS011;2186;49.866;7.986;2022-11-15T08:05:35;3.27;;;2.97;;
4345;SDS011;2186;49.866;7.986;2022-11-15T08:08:02;2.83;;;2.60;;
4345;SDS011;2186;49.866;7.986;2022-11-15T08:10:29;2.43;;;2.30;;
4345;SDS011;2186;49.866;7.986;2022-11-15T08:13:06;3.00;;;2.53;;
4345;SDS011;2186;49.866;7.986;2022-11-15T08:15:35;5.03;;;2.67;;
4345;SDS011;2186;49.866;7.986;2022-11-15T08:18:03;2.97;;;2.77;;
4345;SDS011;2186;49.866;7.986;2022-11-15T08:20:31;3.53;;;3.23;;
4345;SDS011;2186;49.866;7.986;2022-11-15T08:22:58;4.60;;;4.20;;
4345;SDS011;2186;49.866;7.986;2022-11-15T08:25:26;8.60;;;4.83;;
4345;SDS011;2186;49.866;7.986;2022-11-15T08:27:55;10.37;;;5.73;;
4345;SDS011;2186;49.866;7.986;2022-11-15T08:30:23;5.90;;;4.83;;
4345;SDS011;2186;49.866;7.986;2022-11-15T08:32:51;5.87;;;5.30;;
4345;SDS011;2186;49.866;7.986;2022-11-15T08:35:18;4.57;;;3.80;;
4345;SDS011;2186;49.866;7.986;2022-11-15T08:37:53;7.77;;;5.13;;
4345;SDS011;2186;49.866;7.986;2022-11-15T08:40:20;4.43;;;4.13;;
4345;SDS011;2186;49.866;7.986;2022-11-15T08:42:46;4.03;;;3.73;;
4345;SDS011;2186;49.866;7.986;2022-11-15T08:45:13;4.37;;;3.97;;
4345;SDS011;2186;49.866;7.986;2022-11-15T08:47:40;5.80;;;4.70;;
4345;SDS011;2186;49.866;7.986;2022-11-15T08:50:06;7.43;;;4.20;;
4345;SDS011;2186;49.866;7.986;2022-11-15T08:52:33;4.90;;;4.17;;
4345;SDS011;2186;49.866;7.986;2022-11-15T08:55:00;6.60;;;5.00;;
4345;SDS011;2186;49.866;7.986;2022-11-15T08:57:28;6.50;;;4.30;;
4345;SDS011;2186;49.866;7.986;2022-11-15T08:59:56;3.37;;;3.07;;
4345;SDS011;2186;49.866;7.986;2022-11-15T09:02:23;6.83;;;4.00;;
4345;SDS011;2186;49.866;7.986;2022-11-15T09:04:49;4.77;;;4.03;;
4345;SDS011;2186;49.866;7.986;2022-11-15T09:07:16;5.33;;;4.30;;
4345;SDS011;2186;49.866;7.986;2022-11-15T09:09:42;6.03;;;4.30;;
4345;SDS011;2186;49.866;7.986;2022-11-15T09:12:09;4.10;;;3.00;;
4345;SDS011;2186;49.866;7.986;2022-11-15T09:14:35;4.10;;;3.77;;
4345;SDS011;2186;49.866;7.986;2022-11-15T09:17:02;10.20;;;4.90;;
4345;SDS011;2186;49.866;7.986;2022-11-15T09:19:29;4.97;;;4.57;;
4345;SDS011;2186;49.866;7.986;2022-11-15T09:21:55;4.67;;;4.27;;
4345;SDS011;2186;49.866;7.986;2022-11-15T09:24:21;9.37;;;4.50;;
4345;SDS011;2186;49.866;7.986;2022-11-15T09:26:49;4.73;;;4.00;;
4345;SDS011;2186;49.866;7.986;2022-11-15T09:29:17;6.80;;;3.77;;
4345;SDS011;2186;49.866;7.986;2022-11-15T09:31:44;7.33;;;4.27;;
4345;SDS011;2186;49.866;7.986;2022-11-15T09:34:11;4.47;;;4.03;;
4345;SDS011;2186;49.866;7.986;2022-11-15T09:36:37;11.80;;;6.10;;
4345;SDS011;2186;49.866;7.986;2022-11-15T09:39:04;7.37;;;5.60;;
4345;SDS011;2186;49.866;7.986;2022-11-15T09:41:36;7.03;;;4.50;;
4345;SDS011;2186;49.866;7.986;2022-11-15T09:46:54;5.77;;;4.50;;
4345;SDS011;2186;49.866;7.986;2022-11-15T09:49:35;3.93;;;3.40;;
4345;SDS011;2186;49.866;7.986;2022-11-15T09:52:01;4.13;;;3.90;;
4345;SDS011;2186;49.866;7.986;2022-11-15T09:54:33;3.83;;;3.40;;
4345;SDS011;2186;49.866;7.986;2022-11-15T09:57:24;20.03;;;4.13;;
4345;SDS011;2186;49.866;7.986;2022-11-15T10:00:20;4.40;;;2.73;;
4345;SDS011;2186;49.866;7.986;2022-11-15T10:03:12;5.33;;;4.77;;
4345;SDS011;2186;49.866;7.986;2022-11-15T10:05:48;9.20;;;5.07;;
4345;SDS011;2186;49.866;7.986;2022-11-15T10:10:46;4.60;;;4.30;;
4345;SDS011;2186;49.866;7.986;2022-11-15T10:13:35;9.57;;;7.07;;
4345;SDS011;2186;49.866;7.986;2022-11-15T10:24:44;6.00;;;3.40;;
4345;SDS011;2186;49.866;7.986;2022-11-15T10:27:16;6.20;;;5.70;;
4345;SDS011;2186;49.866;7.986;2022-11-15T10:29:44;5.90;;;5.07;;
4345;SDS011;2186;49.866;7.986;2022-11-15T10:32:11;6.13;;;4.63;;
4345;SDS011;2186;49.866;7.986;2022-11-15T10:34:40;4.23;;;3.80;;
4345;SDS011;2186;49.866;7.986;2022-11-15T10:37:06;6.17;;;5.00;;
4345;SDS011;2186;49.866;7.986;2022-11-15T10:39:34;7.37;;;4.70;;
4345;SDS011;2186;49.866;7.986;2022-11-15T10:42:17;8.67;;;6.50;;
4345;SDS011;2186;49.866;7.986;2022-11-15T10:44:51;17.47;;;5.27;;
4345;SDS011;2186;49.866;7.986;2022-11-15T10:47:31;10.10;;;5.57;;
4345;SDS011;2186;49.866;7.986;2022-11-15T10:50:25;6.70;;;6.23;;
4345;SDS011;2186;49.866;7.986;2022-11-15T10:52:53;5.50;;;4.90;;
4345;SDS011;2186;49.866;7.986;2022-11-15T10:55:21;19.70;;;5.80;;
4345;SDS011;2186;49.866;7.986;2022-11-15T10:57:52;6.63;;;4.43;;
4345;SDS011;2186;49.866;7.986;2022-11-15T11:05:30;5.00;;;4.00;;
4345;SDS011;2186;49.866;7.986;2022-11-15T11:08:09;5.83;;;4.77;;
4345;SDS011;2186;49.866;7.986;2022-11-15T11:10:51;5.37;;;4.43;;
4345;SDS011;2186;49.866;7.986;2022-11-15T11:13:29;4.40;;;4.00;;
4345;SDS011;2186;49.866;7.986;2022-11-15T11:18:54;2.97;;;2.77;;
4345;SDS011;2186;49.866;7.986;2022-11-15T11:21:26;2.87;;;2.00;;
4345;SDS011;2186;49.866;7.986;2022-11-15T11:27:09;2.70;;;2.13;;
4345;SDS011;2186;49.866;7.986;2022-11-15T11:30:06;3.03;;;2.83;;
4345;SDS011;2186;49.866;7.986;2022-11-15T11:32:40;3.07;;;1.83;;
4345;SDS011;2186;49.866;7.986;2022-11-15T11:35:24;21.93;;;2.50;;
4345;SDS011;2186;49.866;7.986;2022-11-15T11:37:54;6.93;;;3.23;;
4345;SDS011;2186;49.866;7.986;2022-11-15T11:40:30;2.00;;;1.87;;
4345;SDS011;2186;49.866;7.986;2022-11-15T11:48:30;5.87;;;2.47;;
4345;SDS011;2186;49.866;7.986;2022-11-15T11:51:15;4.07;;;3.70;;
4345;SDS011;2186;49.866;7.986;2022-11-15T11:53:54;3.10;;;2.23;;
4345;SDS011;2186;49.866;7.986;2022-11-15T11:56:26;4.73;;;2.60;;
4345;SDS011;2186;49.866;7.986;2022-11-15T11:58:57;29.47;;;3.10;;
4345;SDS011;2186;49.866;7.986;2022-11-15T12:01:33;4.80;;;2.63;;
4345;SDS011;2186;49.866;7.986;2022-11-15T12:06:49;3.27;;;3.07;;
4345;SDS011;2186;49.866;7.986;2022-11-15T12:09:21;2.50;;;2.33;;
4345;SDS011;2186;49.866;7.986;2022-11-15T12:14:44;10.53;;;3.70;;
4345;SDS011;2186;49.866;7.986;2022-11-15T12:17:13;3.70;;;3.40;;
4345;SDS011;2186;49.866;7.986;2022-11-15T12:19:42;3.07;;;2.87;;
4345;SDS011;2186;49.866;7.986;2022-11-15T12:22:19;3.33;;;3.07;;
4345;SDS011;2186;49.866;7.986;2022-11-15T12:24:57;1.83;;;1.73;;
4345;SDS011;2186;49.866;7.986;2022-11-15T12:27:32;4.57;;;3.07;;
4345;SDS011;2186;49.866;7.986;2022-11-15T12:30:16;3.10;;;2.50;;
4345;SDS011;2186;49.866;7.986;2022-11-15T12:32:52;8.73;;;2.70;;
4345;SDS011;2186;49.866;7.986;2022-11-15T12:38:51;2.07;;;1.97;;
4345;SDS011;2186;49.866;7.986;2022-11-15T12:41:15;2.73;;;2.23;;
4345;SDS011;2186;49.866;7.986;2022-11-15T12:43:44;2.47;;;2.37;;
4345;SDS011;2186;49.866;7.986;2022-11-15T12:49:07;2.20;;;2.10;;
4345;SDS011;2186;49.866;7.986;2022-11-15T13:02:45;2.67;;;1.80;;
4345;SDS011;2186;49.866;7.986;2022-11-15T13:13:41;3.93;;;2.60;;
4345;SDS011;2186;49.866;7.986;2022-11-15T13:20:49;3.37;;;3.07;;
4345;SDS011;2186;49.866;7.986;2022-11-15T13:23:16;8.07;;;2.93;;
4345;SDS011;2186;49.866;7.986;2022-11-15T13:33:19;2.90;;;2.70;;
4345;SDS011;2186;49.866;7.986;2022-11-15T13:35:50;3.07;;;2.77;;
4345;SDS011;2186;49.866;7.986;2022-11-15T13:40:55;3.90;;;3.07;;
4345;SDS011;2186;49.866;7.986;2022-11-15T13:46:07;2.33;;;1.87;;
4345;SDS011;2186;49.866;7.986;2022-11-15T13:48:36;2.97;;;2.77;;
4345;SDS011;2186;49.866;7.986;2022-11-15T13:51:05;2.83;;;2.73;;
4345;SDS011;2186;49.866;7.986;2022-11-15T13:53:43;3.30;;;2.40;;
4345;SDS011;2186;49.866;7.986;2022-11-15T13:56:15;6.60;;;3.13;;
4345;SDS011;2186;49.866;7.986;2022-11-15T13:58:44;2.87;;;2.67;;
4345;SDS011;2186;49.866;7.986;2022-11-15T14:01:16;8.63;;;2.67;;
4345;SDS011;2186;49.866;7.986;2022-11-15T14:03:54;2.73;;;2.60;;
4345;SDS011;2186;49.866;7.986;2022-11-15T14:06:24;3.13;;;2.83;;
4345;SDS011;2186;49.866;7.986;2022-11-15T14:09:04;2.80;;;2.60;;
4345;SDS011;2186;49.866;7.986;2022-11-15T14:11:37;4.40;;;4.00;;
4345;SDS011;2186;49.866;7.986;2022-11-15T14:14:15;3.13;;;1.43;;
4345;SDS011;2186;49.866;7.986;2022-11-15T14:16:42;2.30;;;2.20;;
4345;SDS011;2186;49.866;7.986;2022-11-15T14:19:12;4.00;;;3.70;;
4345;SDS011;2186;49.866;7.986;2022-11-15T14:24:44;4.13;;;3.07;;
4345;SDS011;2186;49.866;7.986;2022-11-15T14:27:25;3.23;;;3.03;;
4345;SDS011;2186;49.866;7.986;2022-11-15T14:29:54;2.20;;;2.10;;
4345;SDS011;2186;49.866;7.986;2022-11-15T14:32:22;4.33;;;2.93;;
4345;SDS011;2186;49.866;7.986;2022-11-15T14:34:54;2.07;;;1.97;;
4345;SDS011;2186;49.866;7.986;2022-11-15T14:37:28;1.27;;;1.17;;
4345;SDS011;2186;49.866;7.986;2022-11-15T14:40:01;2.33;;;2.23;;
4345;SDS011;2186;49.866;7.986;2022-11-15T14:42:29;2.67;;;2.47;;
4345;SDS011;2186;49.866;7.986;2022-11-15T14:44:56;7.10;;;2.37;;
4345;SDS011;2186;49.866;7.986;2022-11-15T14:47:22;2.90;;;2.00;;
4345;SDS011;2186;49.866;7.986;2022-11-15T14:49:51;1.93;;;1.83;;
4345;SDS011;2186;49.866;7.986;2022-11-15T14:52:27;1.20;;;1.10;;
4345;SDS011;2186;49.866;7.986;2022-11-15T14:55:03;2.20;;;2.10;;
4345;SDS011;2186;49.866;7.986;2022-11-15T14:57:36;2.07;;;1.97;;
4345;SDS011;2186;49.866;7.986;2022-11-15T15:00:03;3.03;;;2.20;;
4345;SDS011;2186;49.866;7.986;2022-11-15T15:02:30;1.63;;;1.47;;
4345;SDS011;2186;49.866;7.986;2022-11-15T15:04:57;2.00;;;1.90;;
4345;SDS011;2186;49.866;7.986;2022-11-15T15:07:27;9.73;;;2.60;;
4345;SDS011;2186;49.866;7.986;2022-11-15T15:09:53;3.10;;;1.60;;
4345;SDS011;2186;49.866;7.986;2022-11-15T15:12:39;1.40;;;1.30;;
4345;SDS011;2186;49.866;7.986;2022-11-15T15:15:11;24.80;;;1.83;;
4345;SDS011;2186;49.866;7.986;2022-11-15T15:17:40;0.87;;;0.87;;
4345;SDS011;2186;49.866;7.986;2022-11-15T15:20:07;2.10;;;2.00;;
4345;SDS011;2186;49.866;7.986;2022-11-15T15:22:34;6.70;;;1.70;;
4345;SDS011;2186;49.866;7.986;2022-11-15T15:25:00;2.70;;;2.00;;
4345;SDS011;2186;49.866;7.986;2022-11-15T15:27:27;0.87;;;0.83;;
4345;SDS011;2186;49.866;7.986;2022-11-15T15:29:53;1.40;;;1.30;;
4345;SDS011;2186;49.866;7.986;2022-11-15T15:32:20;1.23;;;1.13;;
4345;SDS011;2186;49.866;7.986;2022-11-15T15:34:47;2.63;;;1.60;;
4345;SDS011;2186;49.866;7.986;2022-11-15T15:37:23;17.90;;;2.57;;
4345;SDS011;2186;49.866;7.986;2022-11-15T15:39:51;3.13;;;2.93;;
4345;SDS011;2186;49.866;7.986;2022-11-15T15:42:19;4.63;;;1.80;;
4345;SDS011;2186;49.866;7.986;2022-11-15T15:44:46;3.00;;;2.37;;
4345;SDS011;2186;49.866;7.986;2022-11-15T15:47:14;3.77;;;1.53;;
4345;SDS011;2186;49.866;7.986;2022-11-15T15:49:42;2.77;;;1.33;;
4345;SDS011;2186;49.866;7.986;2022-11-15T15:52:09;3.00;;;1.20;;
4345;SDS011;2186;49.866;7.986;2022-11-15T15:54:35;17.13;;;3.60;;
4345;SDS011;2186;49.866;7.986;2022-11-15T15:57:02;3.07;;;2.20;;
4345;SDS011;2186;49.866;7.986;2022-11-15T15:59:28;3.53;;;3.20;;
4345;SDS011;2186;49.866;7.986;2022-11-15T16:01:55;1.93;;;1.83;;
4345;SDS011;2186;49.866;7.986;2022-11-15T16:04:21;3.63;;;2.13;;
4345;SDS011;2186;49.866;7.986;2022-11-15T16:06:47;8.20;;;3.13;;
4345;SDS011;2186;49.866;7.986;2022-11-15T16:09:17;1.97;;;1.60;;
4345;SDS011;2186;49.866;7.986;2022-11-15T16:12:05;1.87;;;1.53;;
4345;SDS011;2186;49.866;7.986;2022-11-15T16:14:31;3.50;;;1.60;;
4345;SDS011;2186;49.866;7.986;2022-11-15T16:16:58;2.60;;;1.33;;
4345;SDS011;2186;49.866;7.986;2022-11-15T16:19:24;1.90;;;1.80;;
4345;SDS011;2186;49.866;7.986;2022-11-15T16:21:51;2.07;;;1.87;;
4345;SDS011;2186;49.866;7.986;2022-11-15T16:24:21;3.17;;;1.70;;
4345;SDS011;2186;49.866;7.986;2022-11-15T16:26:48;3.00;;;2.03;;
4345;SDS011;2186;49.866;7.986;2022-11-15T16:29:16;3.97;;;2.80;;
4345;SDS011;2186;49.866;7.986;2022-11-15T16:31:42;3.70;;;3.50;;
4345;SDS011;2186;49.866;7.986;2022-11-15T16:34:09;4.93;;;2.90;;
4345;SDS011;2186;49.866;7.986;2022-11-15T16:36:35;1.83;;;1.57;;
4345;SDS011;2186;49.866;7.986;2022-11-15T16:39:02;5.17;;;1.60;;
4345;SDS011;2186;49.866;7.986;2022-11-15T16:41:32;1.73;;;1.63;;
4345;SDS011;2186;49.866;7.986;2022-11-15T16:43:59;2.43;;;2.07;;
4345;SDS011;2186;49.866;7.986;2022-11-15T16:46:26;2.30;;;2.10;;
4345;SDS011;2186;49.866;7.986;2022-11-15T16:48:53;3.07;;;2.20;;
4345;SDS011;2186;49.866;7.986;2022-11-15T16:51:20;1.90;;;1.80;;
4345;SDS011;2186;49.866;7.986;2022-11-15T16:53:46;1.17;;;1.07;;
4345;SDS011;2186;49.866;7.986;2022-11-15T16:56:27;1.40;;;1.30;;
4345;SDS011;2186;49.866;7.986;2022-11-15T16:58:55;1.30;;;1.20;;
4345;SDS011;2186;49.866;7.986;2022-11-15T17:01:35;1.93;;;1.83;;
4345;SDS011;2186;49.866;7.986;2022-11-15T17:04:18;6.73;;;1.03;;
4345;SDS011;2186;49.866;7.986;2022-11-15T17:06:47;2.07;;;1.97;;
4345;SDS011;2186;49.866;7.986;2022-11-15T17:09:15;2.10;;;1.90;;
4345;SDS011;2186;49.866;7.986;2022-11-15T17:11:43;1.40;;;1.30;;
4345;SDS011;2186;49.866;7.986;2022-11-15T17:14:10;0.70;;;0.63;;
4345;SDS011;2186;49.866;7.986;2022-11-15T17:16:37;1.53;;;1.33;;
4345;SDS011;2186;49.866;7.986;2022-11-15T17:19:11;1.40;;;1.30;;
4345;SDS011;2186;49.866;7.986;2022-11-15T17:21:39;2.20;;;0.80;;
4345;SDS011;2186;49.866;7.986;2022-11-15T17:24:05;1.93;;;1.07;;
4345;SDS011;2186;49.866;7.986;2022-11-15T17:26:32;1.30;;;1.20;;
4345;SDS011;2186;49.866;7.986;2022-11-15T17:29:05;0.97;;;0.60;;
4345;SDS011;2186;49.866;7.986;2022-11-15T17:31:36;1.37;;;1.27;;